sensor_id;sensor_type;location;lat;lon;timestamp;P1;durP1;ratioP1;P2;durP2;ratioP2
25503;SDS011;13410;52.114;5.718;2023-07-31T00:01:20;1.25;;;1.10;;
25503;SDS011;13410;52.114;5.718;2023-07-31T00:03:46;1.42;;;1.10;;
25503;SDS011;13410;52.114;5.718;2023-07-31T00:06:12;2.40;;;1.17;;
25503;SDS011;13410;52.114;5.718;2023-07-31T00:08:37;1.55;;;1.27;;
25503;SDS011;13410;52.114;5.718;2023-07-31T00:11:03;1.45;;;1.10;;
25503;SDS011;13410;52.114;5.718;2023-07-31T00:13:28;1.67;;;1.27;;
25503;SDS011;13410;52.114;5.718;2023-07-31T00:15:54;3.65;;;1.40;;
25503;SDS011;13410;52.114;5.718;2023-07-31T00:18:20;2.22;;;1.80;;
25503;SDS011;13410;52.114;5.718;2023-07-31T00:20:45;1.98;;;1.50;;
25503;SDS011;13410;52.114;5.718;2023-07-31T00:23:11;2.22;;;1.55;;
25503;SDS011;13410;52.114;5.718;2023-07-31T00:25:37;2.03;;;1.48;;
25503;SDS011;13410;52.114;5.718;2023-07-31T00:28:02;1.90;;;1.60;;
25503;SDS011;13410;52.114;5.718;2023-07-31T00:30:28;1.60;;;1.50;;
25503;SDS011;13410;52.114;5.718;2023-07-31T00:32:53;2.35;;;1.95;;
25503;SDS011;13410;52.114;5.718;2023-07-31T00:35:19;2.10;;;1.75;;
25503;SDS011;13410;52.114;5.718;2023-07-31T00:37:45;5.75;;;2.00;;
25503;SDS011;13410;52.114;5.718;2023-07-31T00:40:10;2.70;;;2.00;;
25503;SDS011;13410;52.114;5.718;2023-07-31T00:42:36;2.75;;;2.10;;
25503;SDS011;13410;52.114;5.718;2023-07-31T00:45:02;3.58;;;2.42;;
25503;SDS011;13410;52.114;5.718;2023-07-31T00:47:27;4.18;;;2.70;;
25503;SDS011;13410;52.114;5.718;2023-07-31T00:49:53;4.53;;;2.97;;
25503;SDS011;13410;52.114;5.718;2023-07-31T00:52:19;5.38;;;3.40;;
25503;SDS011;13410;52.114;5.718;2023-07-31T00:54:46;8.63;;;5.03;;
25503;SDS011;13410;52.114;5.718;2023-07-31T00:57:11;11.02;;;4.90;;
25503;SDS011;13410;52.114;5.718;2023-07-31T00:59:37;14.65;;;5.75;;
25503;SDS011;13410;52.114;5.718;2023-07-31T01:02:03;15.35;;;6.35;;
25503;SDS011;13410;52.114;5.718;2023-07-31T01:04:29;16.30;;;6.93;;
25503;SDS011;13410;52.114;5.718;2023-07-31T01:07:10;19.30;;;8.25;;
25503;SDS011;13410;52.114;5.718;2023-07-31T01:12:40;22.88;;;8.68;;
25503;SDS011;13410;52.114;5.718;2023-07-31T01:15:07;27.65;;;9.80;;
25503;SDS011;13410;52.114;5.718;2023-07-31T01:17:37;25.35;;;9.07;;
25503;SDS011;13410;52.114;5.718;2023-07-31T01:20:04;26.35;;;9.93;;
25503;SDS011;13410;52.114;5.718;2023-07-31T01:31:13;28.90;;;11.05;;
25503;SDS011;13410;52.114;5.718;2023-07-31T01:33:43;28.38;;;10.27;;
25503;SDS011;13410;52.114;5.718;2023-07-31T01:36:08;30.45;;;10.73;;
25503;SDS011;13410;52.114;5.718;2023-07-31T01:38:35;32.83;;;10.63;;
25503;SDS011;13410;52.114;5.718;2023-07-31T01:41:01;30.58;;;10.23;;
25503;SDS011;13410;52.114;5.718;2023-07-31T01:43:26;32.80;;;9.85;;
25503;SDS011;13410;52.114;5.718;2023-07-31T01:45:52;31.63;;;9.90;;
25503;SDS011;13410;52.114;5.718;2023-07-31T01:48:17;28.10;;;9.27;;
25503;SDS011;13410;52.114;5.718;2023-07-31T01:50:43;24.63;;;8.88;;
25503;SDS011;13410;52.114;5.718;2023-07-31T01:53:08;31.60;;;8.77;;
25503;SDS011;13410;52.114;5.718;2023-07-31T01:55:34;21.35;;;8.23;;
25503;SDS011;13410;52.114;5.718;2023-07-31T01:57:59;22.42;;;8.25;;
25503;SDS011;13410;52.114;5.718;2023-07-31T02:00:25;19.52;;;7.70;;
25503;SDS011;13410;52.114;5.718;2023-07-31T02:02:51;22.15;;;7.50;;
25503;SDS011;13410;52.114;5.718;2023-07-31T02:05:16;22.10;;;7.75;;
25503;SDS011;13410;52.114;5.718;2023-07-31T02:07:42;21.35;;;7.80;;
25503;SDS011;13410;52.114;5.718;2023-07-31T02:10:07;24.17;;;7.68;;
25503;SDS011;13410;52.114;5.718;2023-07-31T02:12:33;20.90;;;6.72;;
25503;SDS011;13410;52.114;5.718;2023-07-31T02:14:58;21.90;;;7.22;;
25503;SDS011;13410;52.114;5.718;2023-07-31T02:17:24;19.92;;;6.63;;
25503;SDS011;13410;52.114;5.718;2023-07-31T02:19:50;18.88;;;6.72;;
25503;SDS011;13410;52.114;5.718;2023-07-31T02:22:15;20.65;;;6.93;;
25503;SDS011;13410;52.114;5.718;2023-07-31T02:24:41;17.38;;;7.00;;
25503;SDS011;13410;52.114;5.718;2023-07-31T02:27:06;18.25;;;6.80;;
25503;SDS011;13410;52.114;5.718;2023-07-31T02:29:32;17.27;;;6.38;;
25503;SDS011;13410;52.114;5.718;2023-07-31T02:31:57;16.50;;;5.85;;
25503;SDS011;13410;52.114;5.718;2023-07-31T02:34:23;18.13;;;6.15;;
25503;SDS011;13410;52.114;5.718;2023-07-31T02:36:48;13.93;;;5.57;;
25503;SDS011;13410;52.114;5.718;2023-07-31T02:39:14;16.30;;;5.03;;
25503;SDS011;13410;52.114;5.718;2023-07-31T02:41:39;13.68;;;5.28;;
25503;SDS011;13410;52.114;5.718;2023-07-31T02:44:05;15.35;;;5.47;;
25503;SDS011;13410;52.114;5.718;2023-07-31T02:46:31;14.82;;;5.65;;
25503;SDS011;13410;52.114;5.718;2023-07-31T02:48:56;17.48;;;6.28;;
25503;SDS011;13410;52.114;5.718;2023-07-31T02:51:22;15.55;;;5.53;;
25503;SDS011;13410;52.114;5.718;2023-07-31T02:53:47;15.05;;;5.47;;
25503;SDS011;13410;52.114;5.718;2023-07-31T02:56:13;16.45;;;5.80;;
25503;SDS011;13410;52.114;5.718;2023-07-31T02:58:39;19.25;;;6.55;;
25503;SDS011;13410;52.114;5.718;2023-07-31T03:01:04;14.73;;;5.57;;
25503;SDS011;13410;52.114;5.718;2023-07-31T03:03:30;18.85;;;7.28;;
25503;SDS011;13410;52.114;5.718;2023-07-31T03:05:56;20.08;;;7.10;;
25503;SDS011;13410;52.114;5.718;2023-07-31T03:08:21;20.27;;;7.18;;
25503;SDS011;13410;52.114;5.718;2023-07-31T03:10:47;19.27;;;7.03;;
25503;SDS011;13410;52.114;5.718;2023-07-31T03:13:12;19.92;;;7.38;;
25503;SDS011;13410;52.114;5.718;2023-07-31T03:15:38;24.00;;;7.00;;
25503;SDS011;13410;52.114;5.718;2023-07-31T03:18:03;19.30;;;7.45;;
25503;SDS011;13410;52.114;5.718;2023-07-31T03:20:29;19.48;;;7.55;;
25503;SDS011;13410;52.114;5.718;2023-07-31T03:22:54;25.95;;;8.23;;
25503;SDS011;13410;52.114;5.718;2023-07-31T03:25:20;24.85;;;8.55;;
25503;SDS011;13410;52.114;5.718;2023-07-31T03:27:45;25.98;;;8.43;;
25503;SDS011;13410;52.114;5.718;2023-07-31T03:30:11;26.77;;;8.63;;
25503;SDS011;13410;52.114;5.718;2023-07-31T03:32:36;24.40;;;8.45;;
25503;SDS011;13410;52.114;5.718;2023-07-31T03:35:02;22.55;;;8.95;;
25503;SDS011;13410;52.114;5.718;2023-07-31T03:37:28;27.92;;;8.90;;
25503;SDS011;13410;52.114;5.718;2023-07-31T03:39:54;22.52;;;8.75;;
25503;SDS011;13410;52.114;5.718;2023-07-31T03:42:19;23.23;;;8.60;;
25503;SDS011;13410;52.114;5.718;2023-07-31T03:44:45;29.60;;;8.85;;
25503;SDS011;13410;52.114;5.718;2023-07-31T03:47:11;29.70;;;8.95;;
25503;SDS011;13410;52.114;5.718;2023-07-31T03:49:37;35.28;;;8.98;;
25503;SDS011;13410;52.114;5.718;2023-07-31T03:52:03;25.30;;;8.07;;
25503;SDS011;13410;52.114;5.718;2023-07-31T03:54:29;27.73;;;8.45;;
25503;SDS011;13410;52.114;5.718;2023-07-31T03:56:54;27.25;;;8.82;;
25503;SDS011;13410;52.114;5.718;2023-07-31T03:59:20;25.17;;;8.70;;
25503;SDS011;13410;52.114;5.718;2023-07-31T04:01:45;25.25;;;8.20;;
25503;SDS011;13410;52.114;5.718;2023-07-31T04:04:11;28.40;;;8.73;;
25503;SDS011;13410;52.114;5.718;2023-07-31T04:06:36;28.15;;;8.80;;
25503;SDS011;13410;52.114;5.718;2023-07-31T04:09:02;21.77;;;8.75;;
25503;SDS011;13410;52.114;5.718;2023-07-31T04:11:28;24.50;;;7.82;;
25503;SDS011;13410;52.114;5.718;2023-07-31T04:13:53;22.67;;;7.72;;
25503;SDS011;13410;52.114;5.718;2023-07-31T04:16:19;21.77;;;7.90;;
25503;SDS011;13410;52.114;5.718;2023-07-31T04:18:44;23.90;;;7.95;;
25503;SDS011;13410;52.114;5.718;2023-07-31T04:21:10;23.02;;;7.90;;
25503;SDS011;13410;52.114;5.718;2023-07-31T04:23:35;25.30;;;8.65;;
25503;SDS011;13410;52.114;5.718;2023-07-31T04:26:01;23.23;;;7.60;;
25503;SDS011;13410;52.114;5.718;2023-07-31T04:28:26;22.75;;;8.23;;
25503;SDS011;13410;52.114;5.718;2023-07-31T04:30:52;24.67;;;7.60;;
25503;SDS011;13410;52.114;5.718;2023-07-31T04:33:18;24.67;;;8.32;;
25503;SDS011;13410;52.114;5.718;2023-07-31T04:35:49;23.77;;;7.38;;
25503;SDS011;13410;52.114;5.718;2023-07-31T04:38:17;21.50;;;7.70;;
25503;SDS011;13410;52.114;5.718;2023-07-31T04:40:43;25.88;;;8.27;;
25503;SDS011;13410;52.114;5.718;2023-07-31T04:43:09;25.25;;;8.00;;
25503;SDS011;13410;52.114;5.718;2023-07-31T04:45:34;25.55;;;8.30;;
25503;SDS011;13410;52.114;5.718;2023-07-31T04:48:00;24.38;;;7.63;;
25503;SDS011;13410;52.114;5.718;2023-07-31T04:50:25;23.52;;;7.90;;
25503;SDS011;13410;52.114;5.718;2023-07-31T04:52:51;19.17;;;6.88;;
25503;SDS011;13410;52.114;5.718;2023-07-31T04:55:17;23.20;;;7.50;;
25503;SDS011;13410;52.114;5.718;2023-07-31T04:57:42;20.05;;;7.07;;
25503;SDS011;13410;52.114;5.718;2023-07-31T05:00:08;22.33;;;7.43;;
25503;SDS011;13410;52.114;5.718;2023-07-31T05:02:34;20.45;;;7.55;;
25503;SDS011;13410;52.114;5.718;2023-07-31T05:04:59;23.42;;;7.18;;
25503;SDS011;13410;52.114;5.718;2023-07-31T05:07:25;23.83;;;7.45;;
25503;SDS011;13410;52.114;5.718;2023-07-31T05:09:51;20.55;;;7.38;;
25503;SDS011;13410;52.114;5.718;2023-07-31T05:12:16;23.27;;;7.20;;
25503;SDS011;13410;52.114;5.718;2023-07-31T05:14:42;22.30;;;7.45;;
25503;SDS011;13410;52.114;5.718;2023-07-31T05:17:07;18.27;;;7.05;;
25503;SDS011;13410;52.114;5.718;2023-07-31T05:19:33;19.15;;;7.10;;
25503;SDS011;13410;52.114;5.718;2023-07-31T05:21:58;17.25;;;6.95;;
25503;SDS011;13410;52.114;5.718;2023-07-31T05:24:24;17.02;;;6.30;;
25503;SDS011;13410;52.114;5.718;2023-07-31T05:26:49;14.35;;;6.43;;
25503;SDS011;13410;52.114;5.718;2023-07-31T05:29:15;20.88;;;6.70;;
25503;SDS011;13410;52.114;5.718;2023-07-31T05:31:41;21.50;;;7.43;;
25503;SDS011;13410;52.114;5.718;2023-07-31T05:34:07;22.13;;;6.90;;
25503;SDS011;13410;52.114;5.718;2023-07-31T05:36:32;16.15;;;6.50;;
25503;SDS011;13410;52.114;5.718;2023-07-31T05:38:58;20.83;;;7.10;;
25503;SDS011;13410;52.114;5.718;2023-07-31T05:41:23;19.10;;;6.15;;
25503;SDS011;13410;52.114;5.718;2023-07-31T05:43:49;15.43;;;6.18;;
25503;SDS011;13410;52.114;5.718;2023-07-31T05:46:14;18.65;;;5.90;;
25503;SDS011;13410;52.114;5.718;2023-07-31T05:48:40;14.57;;;6.00;;
25503;SDS011;13410;52.114;5.718;2023-07-31T05:51:06;16.33;;;5.82;;
25503;SDS011;13410;52.114;5.718;2023-07-31T05:53:32;16.42;;;6.30;;
25503;SDS011;13410;52.114;5.718;2023-07-31T05:55:57;14.35;;;6.63;;
25503;SDS011;13410;52.114;5.718;2023-07-31T05:58:23;12.57;;;5.90;;
25503;SDS011;13410;52.114;5.718;2023-07-31T06:00:48;15.00;;;5.90;;
25503;SDS011;13410;52.114;5.718;2023-07-31T06:03:14;12.10;;;6.10;;
25503;SDS011;13410;52.114;5.718;2023-07-31T06:05:40;10.70;;;5.47;;
25503;SDS011;13410;52.114;5.718;2023-07-31T06:08:05;11.32;;;6.00;;
25503;SDS011;13410;52.114;5.718;2023-07-31T06:10:31;8.48;;;5.90;;
25503;SDS011;13410;52.114;5.718;2023-07-31T06:12:56;12.07;;;6.05;;
25503;SDS011;13410;52.114;5.718;2023-07-31T06:15:22;11.05;;;5.40;;
25503;SDS011;13410;52.114;5.718;2023-07-31T06:17:47;11.18;;;5.47;;
25503;SDS011;13410;52.114;5.718;2023-07-31T06:20:13;14.48;;;5.45;;
25503;SDS011;13410;52.114;5.718;2023-07-31T06:22:41;10.40;;;4.97;;
25503;SDS011;13410;52.114;5.718;2023-07-31T06:25:07;11.02;;;5.20;;
25503;SDS011;13410;52.114;5.718;2023-07-31T06:27:33;9.10;;;5.25;;
25503;SDS011;13410;52.114;5.718;2023-07-31T06:29:58;11.15;;;5.10;;
25503;SDS011;13410;52.114;5.718;2023-07-31T06:32:24;11.35;;;4.90;;
25503;SDS011;13410;52.114;5.718;2023-07-31T06:34:49;7.32;;;4.72;;
25503;SDS011;13410;52.114;5.718;2023-07-31T06:37:15;11.75;;;5.03;;
25503;SDS011;13410;52.114;5.718;2023-07-31T06:39:41;10.85;;;4.68;;
25503;SDS011;13410;52.114;5.718;2023-07-31T06:42:07;10.43;;;4.50;;
25503;SDS011;13410;52.114;5.718;2023-07-31T06:44:32;14.32;;;5.00;;
25503;SDS011;13410;52.114;5.718;2023-07-31T06:46:58;9.30;;;4.22;;
25503;SDS011;13410;52.114;5.718;2023-07-31T06:49:23;26.35;;;5.35;;
25503;SDS011;13410;52.114;5.718;2023-07-31T06:51:49;8.60;;;4.05;;
25503;SDS011;13410;52.114;5.718;2023-07-31T06:54:14;7.88;;;3.92;;
25503;SDS011;13410;52.114;5.718;2023-07-31T06:56:40;8.63;;;4.03;;
25503;SDS011;13410;52.114;5.718;2023-07-31T06:59:05;7.22;;;3.80;;
25503;SDS011;13410;52.114;5.718;2023-07-31T07:01:31;7.03;;;3.15;;
25503;SDS011;13410;52.114;5.718;2023-07-31T07:03:57;6.80;;;3.10;;
25503;SDS011;13410;52.114;5.718;2023-07-31T07:06:22;5.95;;;3.50;;
25503;SDS011;13410;52.114;5.718;2023-07-31T07:08:48;5.45;;;3.13;;
25503;SDS011;13410;52.114;5.718;2023-07-31T07:11:14;6.50;;;3.40;;
25503;SDS011;13410;52.114;5.718;2023-07-31T07:13:39;6.97;;;3.45;;
25503;SDS011;13410;52.114;5.718;2023-07-31T07:16:05;4.78;;;3.00;;
25503;SDS011;13410;52.114;5.718;2023-07-31T07:18:30;6.75;;;2.88;;
25503;SDS011;13410;52.114;5.718;2023-07-31T07:20:56;5.50;;;2.80;;
25503;SDS011;13410;52.114;5.718;2023-07-31T07:23:23;4.22;;;2.30;;
25503;SDS011;13410;52.114;5.718;2023-07-31T07:25:49;5.05;;;2.45;;
25503;SDS011;13410;52.114;5.718;2023-07-31T07:28:14;4.05;;;2.63;;
25503;SDS011;13410;52.114;5.718;2023-07-31T07:30:40;3.78;;;2.42;;
25503;SDS011;13410;52.114;5.718;2023-07-31T07:33:07;4.05;;;2.20;;
25503;SDS011;13410;52.114;5.718;2023-07-31T07:35:33;6.75;;;2.72;;
25503;SDS011;13410;52.114;5.718;2023-07-31T07:37:59;13.77;;;3.72;;
25503;SDS011;13410;52.114;5.718;2023-07-31T07:40:25;4.70;;;2.70;;
25503;SDS011;13410;52.114;5.718;2023-07-31T07:42:51;27.30;;;9.48;;
25503;SDS011;13410;52.114;5.718;2023-07-31T07:45:17;24.25;;;16.17;;
25503;SDS011;13410;52.114;5.718;2023-07-31T07:47:42;6.13;;;3.05;;
25503;SDS011;13410;52.114;5.718;2023-07-31T07:50:08;8.95;;;4.63;;
25503;SDS011;13410;52.114;5.718;2023-07-31T07:52:34;5.07;;;2.97;;
25503;SDS011;13410;52.114;5.718;2023-07-31T07:54:59;3.88;;;2.80;;
25503;SDS011;13410;52.114;5.718;2023-07-31T07:57:26;5.40;;;3.13;;
25503;SDS011;13410;52.114;5.718;2023-07-31T07:59:52;6.35;;;3.72;;
25503;SDS011;13410;52.114;5.718;2023-07-31T08:02:18;4.35;;;3.30;;
25503;SDS011;13410;52.114;5.718;2023-07-31T08:04:43;5.35;;;3.55;;
25503;SDS011;13410;52.114;5.718;2023-07-31T08:07:12;7.78;;;3.88;;
25503;SDS011;13410;52.114;5.718;2023-07-31T08:09:38;5.13;;;3.55;;
25503;SDS011;13410;52.114;5.718;2023-07-31T08:12:04;4.00;;;3.35;;
25503;SDS011;13410;52.114;5.718;2023-07-31T08:14:30;6.13;;;3.67;;
25503;SDS011;13410;52.114;5.718;2023-07-31T08:16:56;5.00;;;3.58;;
25503;SDS011;13410;52.114;5.718;2023-07-31T08:19:22;4.88;;;3.50;;
25503;SDS011;13410;52.114;5.718;2023-07-31T08:21:47;4.47;;;3.45;;
25503;SDS011;13410;52.114;5.718;2023-07-31T08:24:13;4.35;;;3.50;;
25503;SDS011;13410;52.114;5.718;2023-07-31T08:26:38;5.40;;;3.45;;
25503;SDS011;13410;52.114;5.718;2023-07-31T08:29:04;6.25;;;3.42;;
25503;SDS011;13410;52.114;5.718;2023-07-31T08:31:29;4.28;;;3.30;;
25503;SDS011;13410;52.114;5.718;2023-07-31T08:33:55;3.92;;;3.28;;
25503;SDS011;13410;52.114;5.718;2023-07-31T08:36:21;4.30;;;3.40;;
25503;SDS011;13410;52.114;5.718;2023-07-31T08:38:47;3.65;;;3.03;;
25503;SDS011;13410;52.114;5.718;2023-07-31T08:41:12;3.35;;;2.70;;
25503;SDS011;13410;52.114;5.718;2023-07-31T08:43:38;4.05;;;2.80;;
25503;SDS011;13410;52.114;5.718;2023-07-31T08:46:04;3.60;;;2.63;;
25503;SDS011;13410;52.114;5.718;2023-07-31T08:48:30;3.78;;;2.75;;
25503;SDS011;13410;52.114;5.718;2023-07-31T08:50:56;3.17;;;2.50;;
25503;SDS011;13410;52.114;5.718;2023-07-31T08:53:22;4.28;;;2.92;;
25503;SDS011;13410;52.114;5.718;2023-07-31T08:55:48;3.17;;;2.40;;
25503;SDS011;13410;52.114;5.718;2023-07-31T08:58:14;4.20;;;2.53;;
25503;SDS011;13410;52.114;5.718;2023-07-31T09:00:40;4.13;;;2.67;;
25503;SDS011;13410;52.114;5.718;2023-07-31T09:03:09;5.15;;;2.75;;
25503;SDS011;13410;52.114;5.718;2023-07-31T09:05:38;2.83;;;2.35;;
25503;SDS011;13410;52.114;5.718;2023-07-31T09:08:07;2.97;;;2.13;;
25503;SDS011;13410;52.114;5.718;2023-07-31T09:10:39;2.65;;;2.45;;
25503;SDS011;13410;52.114;5.718;2023-07-31T09:13:06;3.28;;;2.40;;
25503;SDS011;13410;52.114;5.718;2023-07-31T09:15:32;3.15;;;2.70;;
25503;SDS011;13410;52.114;5.718;2023-07-31T09:17:59;3.03;;;2.53;;
25503;SDS011;13410;52.114;5.718;2023-07-31T09:20:28;2.85;;;2.50;;
25503;SDS011;13410;52.114;5.718;2023-07-31T09:22:55;3.10;;;2.63;;
25503;SDS011;13410;52.114;5.718;2023-07-31T09:25:22;2.58;;;2.35;;
25503;SDS011;13410;52.114;5.718;2023-07-31T09:30:24;3.28;;;2.40;;
25503;SDS011;13410;52.114;5.718;2023-07-31T09:32:50;2.65;;;2.45;;
25503;SDS011;13410;52.114;5.718;2023-07-31T09:35:29;2.78;;;2.42;;
25503;SDS011;13410;52.114;5.718;2023-07-31T09:37:57;3.00;;;2.63;;
25503;SDS011;13410;52.114;5.718;2023-07-31T09:40:33;3.47;;;2.55;;
25503;SDS011;13410;52.114;5.718;2023-07-31T09:43:04;8.20;;;3.50;;
25503;SDS011;13410;52.114;5.718;2023-07-31T09:45:35;6.30;;;3.65;;
25503;SDS011;13410;52.114;5.718;2023-07-31T09:48:09;4.57;;;3.35;;
25503;SDS011;13410;52.114;5.718;2023-07-31T09:53:05;20.35;;;4.50;;
25503;SDS011;13410;52.114;5.718;2023-07-31T09:55:35;14.27;;;4.18;;
25503;SDS011;13410;52.114;5.718;2023-07-31T09:58:20;4.53;;;3.63;;
25503;SDS011;13410;52.114;5.718;2023-07-31T10:00:46;5.40;;;3.78;;
25503;SDS011;13410;52.114;5.718;2023-07-31T10:03:11;6.38;;;3.97;;
25503;SDS011;13410;52.114;5.718;2023-07-31T10:05:40;4.97;;;4.20;;
25503;SDS011;13410;52.114;5.718;2023-07-31T10:08:14;5.20;;;4.10;;
25503;SDS011;13410;52.114;5.718;2023-07-31T10:10:41;4.75;;;4.18;;
25503;SDS011;13410;52.114;5.718;2023-07-31T10:13:08;5.03;;;4.15;;
25503;SDS011;13410;52.114;5.718;2023-07-31T10:15:34;6.57;;;4.10;;
25503;SDS011;13410;52.114;5.718;2023-07-31T10:18:00;4.70;;;4.00;;
25503;SDS011;13410;52.114;5.718;2023-07-31T10:20:27;5.80;;;4.25;;
25503;SDS011;13410;52.114;5.718;2023-07-31T10:22:54;6.72;;;4.47;;
25503;SDS011;13410;52.114;5.718;2023-07-31T10:25:21;5.53;;;4.78;;
25503;SDS011;13410;52.114;5.718;2023-07-31T10:27:47;5.97;;;4.85;;
25503;SDS011;13410;52.114;5.718;2023-07-31T10:30:17;8.15;;;5.70;;
25503;SDS011;13410;52.114;5.718;2023-07-31T10:32:44;6.82;;;5.32;;
25503;SDS011;13410;52.114;5.718;2023-07-31T10:35:11;7.68;;;5.65;;
25503;SDS011;13410;52.114;5.718;2023-07-31T10:37:38;8.10;;;5.53;;
25503;SDS011;13410;52.114;5.718;2023-07-31T10:40:17;7.53;;;5.88;;
25503;SDS011;13410;52.114;5.718;2023-07-31T10:45:14;8.00;;;5.85;;
25503;SDS011;13410;52.114;5.718;2023-07-31T10:48:19;6.75;;;6.00;;
25503;SDS011;13410;52.114;5.718;2023-07-31T10:50:47;8.68;;;5.60;;
25503;SDS011;13410;52.114;5.718;2023-07-31T10:53:23;7.50;;;6.00;;
25503;SDS011;13410;52.114;5.718;2023-07-31T10:55:50;7.35;;;5.53;;
25503;SDS011;13410;52.114;5.718;2023-07-31T10:58:19;6.35;;;5.50;;
25503;SDS011;13410;52.114;5.718;2023-07-31T11:00:48;6.75;;;5.70;;
25503;SDS011;13410;52.114;5.718;2023-07-31T11:03:14;7.43;;;5.93;;
25503;SDS011;13410;52.114;5.718;2023-07-31T11:08:32;5.95;;;5.03;;
25503;SDS011;13410;52.114;5.718;2023-07-31T11:13:31;5.65;;;5.07;;
25503;SDS011;13410;52.114;5.718;2023-07-31T11:16:05;7.60;;;4.50;;
25503;SDS011;13410;52.114;5.718;2023-07-31T11:18:31;6.82;;;4.10;;
25503;SDS011;13410;52.114;5.718;2023-07-31T11:20:56;5.50;;;4.30;;
25503;SDS011;13410;52.114;5.718;2023-07-31T11:23:22;5.93;;;4.50;;
25503;SDS011;13410;52.114;5.718;2023-07-31T11:25:48;5.28;;;4.32;;
25503;SDS011;13410;52.114;5.718;2023-07-31T11:28:16;6.30;;;4.00;;
25503;SDS011;13410;52.114;5.718;2023-07-31T11:30:43;4.97;;;3.63;;
25503;SDS011;13410;52.114;5.718;2023-07-31T11:33:10;4.25;;;3.55;;
25503;SDS011;13410;52.114;5.718;2023-07-31T11:35:45;3.10;;;2.80;;
25503;SDS011;13410;52.114;5.718;2023-07-31T11:38:30;5.00;;;2.97;;
25503;SDS011;13410;52.114;5.718;2023-07-31T11:40:58;3.78;;;2.30;;
25503;SDS011;13410;52.114;5.718;2023-07-31T11:43:27;2.90;;;2.60;;
25503;SDS011;13410;52.114;5.718;2023-07-31T11:45:56;3.90;;;2.92;;
25503;SDS011;13410;52.114;5.718;2023-07-31T11:48:24;3.83;;;3.33;;
25503;SDS011;13410;52.114;5.718;2023-07-31T11:50:52;4.07;;;3.17;;
25503;SDS011;13410;52.114;5.718;2023-07-31T11:53:25;3.97;;;3.30;;
25503;SDS011;13410;52.114;5.718;2023-07-31T11:55:54;5.05;;;3.40;;
25503;SDS011;13410;52.114;5.718;2023-07-31T11:58:20;4.00;;;3.28;;
25503;SDS011;13410;52.114;5.718;2023-07-31T12:00:46;6.00;;;3.60;;
25503;SDS011;13410;52.114;5.718;2023-07-31T12:03:13;4.60;;;3.58;;
25503;SDS011;13410;52.114;5.718;2023-07-31T12:05:39;4.43;;;3.45;;
25503;SDS011;13410;52.114;5.718;2023-07-31T12:08:11;4.25;;;3.78;;
25503;SDS011;13410;52.114;5.718;2023-07-31T12:10:37;4.32;;;3.90;;
25503;SDS011;13410;52.114;5.718;2023-07-31T12:13:07;6.57;;;3.90;;
25503;SDS011;13410;52.114;5.718;2023-07-31T12:15:42;5.95;;;4.03;;
25503;SDS011;13410;52.114;5.718;2023-07-31T12:18:18;5.20;;;4.13;;
25503;SDS011;13410;52.114;5.718;2023-07-31T12:20:46;4.32;;;3.60;;
25503;SDS011;13410;52.114;5.718;2023-07-31T12:23:25;4.00;;;3.40;;
25503;SDS011;13410;52.114;5.718;2023-07-31T12:26:02;3.95;;;3.35;;
25503;SDS011;13410;52.114;5.718;2023-07-31T12:28:27;6.93;;;3.30;;
25503;SDS011;13410;52.114;5.718;2023-07-31T12:30:56;4.90;;;3.20;;
25503;SDS011;13410;52.114;5.718;2023-07-31T12:33:24;3.88;;;3.13;;
25503;SDS011;13410;52.114;5.718;2023-07-31T12:35:57;4.53;;;3.53;;
25503;SDS011;13410;52.114;5.718;2023-07-31T12:38:23;3.75;;;3.10;;
25503;SDS011;13410;52.114;5.718;2023-07-31T12:40:48;3.58;;;2.78;;
25503;SDS011;13410;52.114;5.718;2023-07-31T12:43:14;3.50;;;3.00;;
25503;SDS011;13410;52.114;5.718;2023-07-31T12:45:40;3.50;;;2.78;;
25503;SDS011;13410;52.114;5.718;2023-07-31T12:48:06;2.97;;;2.67;;
25503;SDS011;13410;52.114;5.718;2023-07-31T12:50:31;3.40;;;3.10;;
25503;SDS011;13410;52.114;5.718;2023-07-31T12:52:57;4.13;;;2.92;;
25503;SDS011;13410;52.114;5.718;2023-07-31T12:55:23;4.38;;;3.63;;
25503;SDS011;13410;52.114;5.718;2023-07-31T12:57:49;3.65;;;2.80;;
25503;SDS011;13410;52.114;5.718;2023-07-31T13:00:15;3.83;;;2.88;;
25503;SDS011;13410;52.114;5.718;2023-07-31T13:02:41;3.78;;;3.30;;
25503;SDS011;13410;52.114;5.718;2023-07-31T13:05:06;4.65;;;3.20;;
25503;SDS011;13410;52.114;5.718;2023-07-31T13:07:32;4.25;;;3.60;;
25503;SDS011;13410;52.114;5.718;2023-07-31T13:09:58;3.78;;;3.47;;
25503;SDS011;13410;52.114;5.718;2023-07-31T13:12:23;5.18;;;4.00;;
25503;SDS011;13410;52.114;5.718;2023-07-31T13:14:49;5.57;;;4.25;;
25503;SDS011;13410;52.114;5.718;2023-07-31T13:17:15;8.57;;;4.07;;
25503;SDS011;13410;52.114;5.718;2023-07-31T13:19:42;5.75;;;4.07;;
25503;SDS011;13410;52.114;5.718;2023-07-31T13:22:08;5.15;;;4.30;;
25503;SDS011;13410;52.114;5.718;2023-07-31T13:24:33;6.38;;;4.63;;
25503;SDS011;13410;52.114;5.718;2023-07-31T13:26:59;5.30;;;4.80;;
25503;SDS011;13410;52.114;5.718;2023-07-31T13:29:24;6.07;;;4.80;;
25503;SDS011;13410;52.114;5.718;2023-07-31T13:31:50;6.47;;;4.68;;
25503;SDS011;13410;52.114;5.718;2023-07-31T13:34:17;6.38;;;4.93;;
25503;SDS011;13410;52.114;5.718;2023-07-31T13:36:42;5.53;;;5.03;;
25503;SDS011;13410;52.114;5.718;2023-07-31T13:39:08;6.25;;;5.50;;
25503;SDS011;13410;52.114;5.718;2023-07-31T13:41:33;5.53;;;5.00;;
25503;SDS011;13410;52.114;5.718;2023-07-31T13:43:59;8.32;;;5.95;;
25503;SDS011;13410;52.114;5.718;2023-07-31T13:46:24;8.85;;;5.80;;
25503;SDS011;13410;52.114;5.718;2023-07-31T13:48:50;6.53;;;5.90;;
25503;SDS011;13410;52.114;5.718;2023-07-31T13:51:19;6.13;;;5.53;;
25503;SDS011;13410;52.114;5.718;2023-07-31T13:53:45;7.80;;;5.90;;
25503;SDS011;13410;52.114;5.718;2023-07-31T13:56:10;7.70;;;6.20;;
25503;SDS011;13410;52.114;5.718;2023-07-31T13:58:36;9.00;;;6.38;;
25503;SDS011;13410;52.114;5.718;2023-07-31T14:01:02;7.95;;;5.47;;
25503;SDS011;13410;52.114;5.718;2023-07-31T14:03:28;7.22;;;5.57;;
25503;SDS011;13410;52.114;5.718;2023-07-31T14:05:54;7.30;;;5.80;;
25503;SDS011;13410;52.114;5.718;2023-07-31T14:08:20;6.20;;;5.60;;
25503;SDS011;13410;52.114;5.718;2023-07-31T14:10:46;6.72;;;6.00;;
25503;SDS011;13410;52.114;5.718;2023-07-31T14:13:12;7.55;;;6.10;;
25503;SDS011;13410;52.114;5.718;2023-07-31T14:15:37;7.32;;;6.13;;
25503;SDS011;13410;52.114;5.718;2023-07-31T14:18:03;6.57;;;5.63;;
25503;SDS011;13410;52.114;5.718;2023-07-31T14:20:29;7.72;;;6.53;;
25503;SDS011;13410;52.114;5.718;2023-07-31T14:22:55;8.07;;;6.60;;
25503;SDS011;13410;52.114;5.718;2023-07-31T14:25:20;7.68;;;6.70;;
25503;SDS011;13410;52.114;5.718;2023-07-31T14:27:46;10.25;;;7.40;;
25503;SDS011;13410;52.114;5.718;2023-07-31T14:30:12;9.60;;;6.93;;
25503;SDS011;13410;52.114;5.718;2023-07-31T14:32:37;9.13;;;7.03;;
25503;SDS011;13410;52.114;5.718;2023-07-31T14:35:03;8.45;;;7.40;;
25503;SDS011;13410;52.114;5.718;2023-07-31T14:37:50;8.00;;;6.78;;
25503;SDS011;13410;52.114;5.718;2023-07-31T14:40:14;8.18;;;6.68;;
25503;SDS011;13410;52.114;5.718;2023-07-31T14:42:40;7.50;;;6.55;;
25503;SDS011;13410;52.114;5.718;2023-07-31T14:45:06;9.30;;;6.35;;
25503;SDS011;13410;52.114;5.718;2023-07-31T14:47:32;7.78;;;6.05;;
25503;SDS011;13410;52.114;5.718;2023-07-31T14:49:58;7.38;;;5.63;;
25503;SDS011;13410;52.114;5.718;2023-07-31T14:52:25;8.70;;;5.55;;
25503;SDS011;13410;52.114;5.718;2023-07-31T14:54:50;7.45;;;5.57;;
25503;SDS011;13410;52.114;5.718;2023-07-31T14:57:16;7.47;;;5.70;;
25503;SDS011;13410;52.114;5.718;2023-07-31T14:59:41;7.47;;;5.32;;
25503;SDS011;13410;52.114;5.718;2023-07-31T15:02:08;7.32;;;5.60;;
25503;SDS011;13410;52.114;5.718;2023-07-31T15:04:34;7.53;;;5.18;;